Lawton, Pennsylvania
Current Conditions -  °F | °C
As of 4:53 AM on Monday 20 Oct 2014 (Local Time) from KBGM Reporting Station
Overcast Overcast  
Wind Chill: 31°   Ceiling: 11000
Heat Index: 35°   Visibility: 10mi
Dew Point: 28°   Wind: 5mph
Humidity: 76%   Direction: 200°SSW
Pressure: 30"   Gusts: NA
Location:  41.79°N, 76.07°W
Report Text: KBGM 200853Z AUTO 20004KT 10SM OVC110 02/M02 A3000 RMK AO2 SLP171 T00171022 58004
Loading
Personal Weather Stations






























Interactive Weather Map
Tropical Storm Tracking
New forecast layout! Learn more

10-Day Weather Forecast

Advertisements
Track Severe Weather on mobile